sensor_id;sensor_type;location;lat;lon;timestamp;P1;durP1;ratioP1;P2;durP2;ratioP2
44036;SDS011;62488;-37.670;-63.532;2023-02-27T00:00:11;26.55;;;3.67;;
44036;SDS011;62488;-37.670;-63.532;2023-02-27T00:02:42;33.28;;;3.60;;
44036;SDS011;62488;-37.670;-63.532;2023-02-27T00:05:10;31.10;;;4.78;;
44036;SDS011;62488;-37.670;-63.532;2023-02-27T00:07:37;22.20;;;4.20;;
44036;SDS011;62488;-37.670;-63.532;2023-02-27T00:22:05;26.23;;;6.03;;
44036;SDS011;62488;-37.670;-63.532;2023-02-27T00:24:32;29.92;;;8.25;;
44036;SDS011;62488;-37.670;-63.532;2023-02-27T00:26:59;28.25;;;7.80;;
44036;SDS011;62488;-37.670;-63.532;2023-02-27T00:29:26;24.15;;;7.03;;
44036;SDS011;62488;-37.670;-63.532;2023-02-27T00:31:53;20.63;;;3.28;;
44036;SDS011;62488;-37.670;-63.532;2023-02-27T00:34:20;18.48;;;3.53;;
44036;SDS011;62488;-37.670;-63.532;2023-02-27T00:36:47;24.77;;;2.22;;
44036;SDS011;62488;-37.670;-63.532;2023-02-27T00:39:14;15.30;;;2.67;;
44036;SDS011;62488;-37.670;-63.532;2023-02-27T00:41:41;16.33;;;3.63;;
44036;SDS011;62488;-37.670;-63.532;2023-02-27T00:44:08;11.45;;;2.47;;
44036;SDS011;62488;-37.670;-63.532;2023-02-27T00:46:35;30.50;;;3.40;;
44036;SDS011;62488;-37.670;-63.532;2023-02-27T00:49:02;10.88;;;2.55;;
44036;SDS011;62488;-37.670;-63.532;2023-02-27T00:51:29;16.58;;;1.88;;
44036;SDS011;62488;-37.670;-63.532;2023-02-27T00:53:56;8.38;;;2.35;;
44036;SDS011;62488;-37.670;-63.532;2023-02-27T00:56:23;20.27;;;4.57;;
44036;SDS011;62488;-37.670;-63.532;2023-02-27T00:58:50;7.20;;;3.05;;
44036;SDS011;62488;-37.670;-63.532;2023-02-27T01:01:17;11.73;;;4.32;;
44036;SDS011;62488;-37.670;-63.532;2023-02-27T01:03:44;17.23;;;2.35;;
44036;SDS011;62488;-37.670;-63.532;2023-02-27T01:06:11;6.15;;;2.13;;
44036;SDS011;62488;-37.670;-63.532;2023-02-27T01:08:39;13.77;;;2.40;;
44036;SDS011;62488;-37.670;-63.532;2023-02-27T01:11:06;15.70;;;2.03;;
44036;SDS011;62488;-37.670;-63.532;2023-02-27T01:13:33;18.52;;;2.20;;
44036;SDS011;62488;-37.670;-63.532;2023-02-27T01:16:00;17.08;;;1.60;;
44036;SDS011;62488;-37.670;-63.532;2023-02-27T01:18:27;9.13;;;1.73;;
44036;SDS011;62488;-37.670;-63.532;2023-02-27T01:20:54;13.40;;;2.33;;
44036;SDS011;62488;-37.670;-63.532;2023-02-27T01:23:22;13.50;;;1.65;;
44036;SDS011;62488;-37.670;-63.532;2023-02-27T01:25:49;16.90;;;2.08;;
44036;SDS011;62488;-37.670;-63.532;2023-02-27T01:28:16;8.93;;;1.85;;
44036;SDS011;62488;-37.670;-63.532;2023-02-27T01:30:43;13.63;;;2.67;;
44036;SDS011;62488;-37.670;-63.532;2023-02-27T01:33:10;14.05;;;2.38;;
44036;SDS011;62488;-37.670;-63.532;2023-02-27T01:35:37;17.83;;;2.00;;
44036;SDS011;62488;-37.670;-63.532;2023-02-27T01:38:04;14.77;;;2.60;;
44036;SDS011;62488;-37.670;-63.532;2023-02-27T01:40:38;15.50;;;2.05;;
44036;SDS011;62488;-37.670;-63.532;2023-02-27T01:43:08;10.00;;;1.98;;
44036;SDS011;62488;-37.670;-63.532;2023-02-27T01:45:40;7.35;;;1.73;;
44036;SDS011;62488;-37.670;-63.532;2023-02-27T01:51:02;12.48;;;2.17;;
44036;SDS011;62488;-37.670;-63.532;2023-02-27T01:53:37;23.80;;;2.42;;
44036;SDS011;62488;-37.670;-63.532;2023-02-27T01:56:10;11.80;;;1.77;;
44036;SDS011;62488;-37.670;-63.532;2023-02-27T01:58:43;11.75;;;1.80;;
44036;SDS011;62488;-37.670;-63.532;2023-02-27T02:01:12;7.63;;;2.10;;
44036;SDS011;62488;-37.670;-63.532;2023-02-27T02:03:42;7.75;;;1.50;;
44036;SDS011;62488;-37.670;-63.532;2023-02-27T02:08:59;11.90;;;1.90;;
44036;SDS011;62488;-37.670;-63.532;2023-02-27T02:13:58;67.65;;;4.60;;
44036;SDS011;62488;-37.670;-63.532;2023-02-27T02:16:43;11.52;;;2.22;;
44036;SDS011;62488;-37.670;-63.532;2023-02-27T02:19:34;15.02;;;2.55;;
44036;SDS011;62488;-37.670;-63.532;2023-02-27T02:25:47;8.82;;;2.22;;
44036;SDS011;62488;-37.670;-63.532;2023-02-27T02:36:45;10.13;;;1.65;;
44036;SDS011;62488;-37.670;-63.532;2023-02-27T02:50:28;22.58;;;4.53;;
44036;SDS011;62488;-37.670;-63.532;2023-02-27T02:58:30;14.18;;;2.65;;
44036;SDS011;62488;-37.670;-63.532;2023-02-27T03:01:29;19.77;;;3.78;;
44036;SDS011;62488;-37.670;-63.532;2023-02-27T03:04:08;21.02;;;3.08;;
44036;SDS011;62488;-37.670;-63.532;2023-02-27T03:07:09;17.83;;;3.17;;
44036;SDS011;62488;-37.670;-63.532;2023-02-27T03:12:26;12.38;;;3.63;;
44036;SDS011;62488;-37.670;-63.532;2023-02-27T03:15:04;12.20;;;2.58;;
44036;SDS011;62488;-37.670;-63.532;2023-02-27T03:20:16;15.13;;;3.00;;
44036;SDS011;62488;-37.670;-63.532;2023-02-27T03:22:50;11.77;;;2.30;;
44036;SDS011;62488;-37.670;-63.532;2023-02-27T03:25:20;12.35;;;3.17;;
44036;SDS011;62488;-37.670;-63.532;2023-02-27T03:27:51;13.52;;;2.22;;
44036;SDS011;62488;-37.670;-63.532;2023-02-27T03:30:35;13.60;;;2.33;;
44036;SDS011;62488;-37.670;-63.532;2023-02-27T03:36:20;14.10;;;2.28;;
44036;SDS011;62488;-37.670;-63.532;2023-02-27T03:39:27;12.60;;;2.47;;
44036;SDS011;62488;-37.670;-63.532;2023-02-27T03:47:21;10.25;;;1.88;;
44036;SDS011;62488;-37.670;-63.532;2023-02-27T03:49:48;16.60;;;2.95;;
44036;SDS011;62488;-37.670;-63.532;2023-02-27T03:52:18;6.47;;;2.13;;
44036;SDS011;62488;-37.670;-63.532;2023-02-27T03:54:56;13.18;;;2.17;;
44036;SDS011;62488;-37.670;-63.532;2023-02-27T03:57:29;14.43;;;2.30;;
44036;SDS011;62488;-37.670;-63.532;2023-02-27T03:59:59;12.60;;;2.85;;
44036;SDS011;62488;-37.670;-63.532;2023-02-27T04:02:29;9.05;;;2.78;;
44036;SDS011;62488;-37.670;-63.532;2023-02-27T04:04:56;17.67;;;3.70;;
44036;SDS011;62488;-37.670;-63.532;2023-02-27T04:19:11;14.90;;;2.08;;
44036;SDS011;62488;-37.670;-63.532;2023-02-27T04:29:24;7.10;;;1.60;;
44036;SDS011;62488;-37.670;-63.532;2023-02-27T04:34:58;8.02;;;1.95;;
44036;SDS011;62488;-37.670;-63.532;2023-02-27T04:37:36;12.05;;;2.40;;
44036;SDS011;62488;-37.670;-63.532;2023-02-27T04:40:27;11.85;;;2.25;;
44036;SDS011;62488;-37.670;-63.532;2023-02-27T04:43:00;14.90;;;2.33;;
44036;SDS011;62488;-37.670;-63.532;2023-02-27T04:45:32;11.73;;;2.15;;
44036;SDS011;62488;-37.670;-63.532;2023-02-27T04:48:04;11.13;;;1.90;;
44036;SDS011;62488;-37.670;-63.532;2023-02-27T04:50:39;23.00;;;3.17;;
44036;SDS011;62488;-37.670;-63.532;2023-02-27T04:53:20;12.50;;;2.28;;
44036;SDS011;62488;-37.670;-63.532;2023-02-27T04:55:58;17.13;;;2.10;;
44036;SDS011;62488;-37.670;-63.532;2023-02-27T04:58:36;10.30;;;1.50;;
44036;SDS011;62488;-37.670;-63.532;2023-02-27T05:01:15;11.23;;;1.83;;
44036;SDS011;62488;-37.670;-63.532;2023-02-27T05:04:10;15.25;;;2.85;;
44036;SDS011;62488;-37.670;-63.532;2023-02-27T05:06:42;8.70;;;1.80;;
44036;SDS011;62488;-37.670;-63.532;2023-02-27T05:11:58;12.02;;;1.85;;
44036;SDS011;62488;-37.670;-63.532;2023-02-27T05:14:31;8.23;;;1.75;;
44036;SDS011;62488;-37.670;-63.532;2023-02-27T05:17:08;10.43;;;2.28;;
44036;SDS011;62488;-37.670;-63.532;2023-02-27T05:19:50;12.88;;;2.65;;
44036;SDS011;62488;-37.670;-63.532;2023-02-27T05:22:22;10.77;;;1.95;;
44036;SDS011;62488;-37.670;-63.532;2023-02-27T05:32:54;7.35;;;1.75;;
44036;SDS011;62488;-37.670;-63.532;2023-02-27T05:35:50;11.90;;;1.92;;
44036;SDS011;62488;-37.670;-63.532;2023-02-27T05:38:40;5.13;;;1.83;;
44036;SDS011;62488;-37.670;-63.532;2023-02-27T05:41:13;9.57;;;1.83;;
44036;SDS011;62488;-37.670;-63.532;2023-02-27T05:43:52;19.38;;;2.20;;
44036;SDS011;62488;-37.670;-63.532;2023-02-27T05:46:29;6.78;;;2.58;;
44036;SDS011;62488;-37.670;-63.532;2023-02-27T05:49:46;14.35;;;1.65;;
44036;SDS011;62488;-37.670;-63.532;2023-02-27T05:51:56;9.85;;;1.90;;
44036;SDS011;62488;-37.670;-63.532;2023-02-27T05:57:04;11.68;;;2.00;;
44036;SDS011;62488;-37.670;-63.532;2023-02-27T05:59:39;8.98;;;1.50;;
44036;SDS011;62488;-37.670;-63.532;2023-02-27T06:02:19;12.45;;;1.83;;
44036;SDS011;62488;-37.670;-63.532;2023-02-27T06:04:46;15.93;;;1.80;;
44036;SDS011;62488;-37.670;-63.532;2023-02-27T06:07:13;9.35;;;1.90;;
44036;SDS011;62488;-37.670;-63.532;2023-02-27T06:09:41;16.92;;;1.90;;
44036;SDS011;62488;-37.670;-63.532;2023-02-27T06:12:10;4.50;;;1.43;;
44036;SDS011;62488;-37.670;-63.532;2023-02-27T06:14:37;14.70;;;2.13;;
44036;SDS011;62488;-37.670;-63.532;2023-02-27T06:17:04;11.50;;;2.30;;
44036;SDS011;62488;-37.670;-63.532;2023-02-27T06:19:31;15.50;;;2.03;;
44036;SDS011;62488;-37.670;-63.532;2023-02-27T06:21:58;9.20;;;1.95;;
44036;SDS011;62488;-37.670;-63.532;2023-02-27T06:24:25;10.43;;;2.75;;
44036;SDS011;62488;-37.670;-63.532;2023-02-27T06:26:51;14.48;;;2.22;;
44036;SDS011;62488;-37.670;-63.532;2023-02-27T06:29:18;17.23;;;1.67;;
44036;SDS011;62488;-37.670;-63.532;2023-02-27T06:31:46;6.00;;;1.85;;
44036;SDS011;62488;-37.670;-63.532;2023-02-27T06:34:13;8.50;;;2.03;;
44036;SDS011;62488;-37.670;-63.532;2023-02-27T06:36:40;7.00;;;1.25;;
44036;SDS011;62488;-37.670;-63.532;2023-02-27T06:39:07;5.65;;;1.38;;
44036;SDS011;62488;-37.670;-63.532;2023-02-27T06:41:34;12.27;;;2.17;;
44036;SDS011;62488;-37.670;-63.532;2023-02-27T06:44:01;5.60;;;1.70;;
44036;SDS011;62488;-37.670;-63.532;2023-02-27T06:46:28;4.43;;;1.30;;
44036;SDS011;62488;-37.670;-63.532;2023-02-27T06:48:55;11.20;;;1.85;;
44036;SDS011;62488;-37.670;-63.532;2023-02-27T06:51:22;8.20;;;2.20;;
44036;SDS011;62488;-37.670;-63.532;2023-02-27T06:53:49;14.52;;;2.25;;
44036;SDS011;62488;-37.670;-63.532;2023-02-27T06:56:16;10.13;;;2.00;;
44036;SDS011;62488;-37.670;-63.532;2023-02-27T06:58:44;11.60;;;2.17;;
44036;SDS011;62488;-37.670;-63.532;2023-02-27T07:01:11;7.63;;;1.60;;
44036;SDS011;62488;-37.670;-63.532;2023-02-27T07:03:38;13.45;;;2.20;;
44036;SDS011;62488;-37.670;-63.532;2023-02-27T07:06:05;11.15;;;2.72;;
44036;SDS011;62488;-37.670;-63.532;2023-02-27T07:08:32;17.15;;;1.67;;
44036;SDS011;62488;-37.670;-63.532;2023-02-27T07:11:00;8.50;;;1.45;;
44036;SDS011;62488;-37.670;-63.532;2023-02-27T07:13:27;6.78;;;1.40;;
44036;SDS011;62488;-37.670;-63.532;2023-02-27T07:15:54;7.95;;;1.27;;
44036;SDS011;62488;-37.670;-63.532;2023-02-27T07:18:24;7.20;;;2.42;;
44036;SDS011;62488;-37.670;-63.532;2023-02-27T07:20:51;13.38;;;1.70;;
44036;SDS011;62488;-37.670;-63.532;2023-02-27T07:23:20;6.97;;;1.67;;
44036;SDS011;62488;-37.670;-63.532;2023-02-27T07:25:47;5.22;;;1.33;;
44036;SDS011;62488;-37.670;-63.532;2023-02-27T07:28:14;2.13;;;1.20;;
44036;SDS011;62488;-37.670;-63.532;2023-02-27T07:30:42;4.97;;;1.27;;
44036;SDS011;62488;-37.670;-63.532;2023-02-27T07:33:09;12.00;;;2.47;;
44036;SDS011;62488;-37.670;-63.532;2023-02-27T07:35:38;8.65;;;1.85;;
44036;SDS011;62488;-37.670;-63.532;2023-02-27T07:38:05;8.65;;;1.70;;
44036;SDS011;62488;-37.670;-63.532;2023-02-27T07:40:32;11.98;;;1.42;;
44036;SDS011;62488;-37.670;-63.532;2023-02-27T07:42:59;8.77;;;2.25;;
44036;SDS011;62488;-37.670;-63.532;2023-02-27T07:45:26;7.47;;;2.47;;
44036;SDS011;62488;-37.670;-63.532;2023-02-27T07:47:53;8.98;;;1.80;;
44036;SDS011;62488;-37.670;-63.532;2023-02-27T07:50:20;11.20;;;1.50;;
44036;SDS011;62488;-37.670;-63.532;2023-02-27T07:52:47;6.97;;;1.13;;
44036;SDS011;62488;-37.670;-63.532;2023-02-27T07:55:14;14.60;;;1.67;;
44036;SDS011;62488;-37.670;-63.532;2023-02-27T07:57:41;9.55;;;1.70;;
44036;SDS011;62488;-37.670;-63.532;2023-02-27T08:00:10;4.67;;;1.20;;
44036;SDS011;62488;-37.670;-63.532;2023-02-27T08:02:38;9.73;;;1.50;;
44036;SDS011;62488;-37.670;-63.532;2023-02-27T08:05:05;6.70;;;2.00;;
44036;SDS011;62488;-37.670;-63.532;2023-02-27T08:07:33;5.35;;;1.85;;
44036;SDS011;62488;-37.670;-63.532;2023-02-27T08:10:02;9.38;;;1.58;;
44036;SDS011;62488;-37.670;-63.532;2023-02-27T08:12:29;9.00;;;2.00;;
44036;SDS011;62488;-37.670;-63.532;2023-02-27T08:14:56;9.52;;;1.70;;
44036;SDS011;62488;-37.670;-63.532;2023-02-27T08:17:24;11.65;;;1.80;;
44036;SDS011;62488;-37.670;-63.532;2023-02-27T08:19:51;13.57;;;1.77;;
44036;SDS011;62488;-37.670;-63.532;2023-02-27T08:22:18;9.20;;;1.52;;
44036;SDS011;62488;-37.670;-63.532;2023-02-27T08:24:45;7.03;;;1.55;;
44036;SDS011;62488;-37.670;-63.532;2023-02-27T08:27:13;8.05;;;1.92;;
44036;SDS011;62488;-37.670;-63.532;2023-02-27T08:29:40;6.30;;;1.30;;
44036;SDS011;62488;-37.670;-63.532;2023-02-27T08:32:08;17.20;;;2.13;;
44036;SDS011;62488;-37.670;-63.532;2023-02-27T08:34:35;4.32;;;1.77;;
44036;SDS011;62488;-37.670;-63.532;2023-02-27T08:37:02;6.32;;;1.63;;
44036;SDS011;62488;-37.670;-63.532;2023-02-27T08:39:29;12.77;;;1.77;;
44036;SDS011;62488;-37.670;-63.532;2023-02-27T08:41:56;8.13;;;1.55;;
44036;SDS011;62488;-37.670;-63.532;2023-02-27T08:44:23;6.10;;;2.33;;
44036;SDS011;62488;-37.670;-63.532;2023-02-27T08:46:50;6.82;;;1.80;;
44036;SDS011;62488;-37.670;-63.532;2023-02-27T08:49:17;7.10;;;2.25;;
44036;SDS011;62488;-37.670;-63.532;2023-02-27T08:51:46;16.65;;;1.77;;
44036;SDS011;62488;-37.670;-63.532;2023-02-27T08:54:13;12.50;;;2.00;;
44036;SDS011;62488;-37.670;-63.532;2023-02-27T08:56:41;20.67;;;3.45;;
44036;SDS011;62488;-37.670;-63.532;2023-02-27T08:59:09;21.98;;;2.13;;
44036;SDS011;62488;-37.670;-63.532;2023-02-27T09:01:36;17.42;;;2.35;;
44036;SDS011;62488;-37.670;-63.532;2023-02-27T09:04:03;10.93;;;2.25;;
44036;SDS011;62488;-37.670;-63.532;2023-02-27T09:06:31;5.25;;;1.58;;
44036;SDS011;62488;-37.670;-63.532;2023-02-27T09:09:00;12.07;;;2.20;;
44036;SDS011;62488;-37.670;-63.532;2023-02-27T09:11:28;12.98;;;1.80;;
44036;SDS011;62488;-37.670;-63.532;2023-02-27T09:13:55;10.57;;;1.65;;
44036;SDS011;62488;-37.670;-63.532;2023-02-27T09:16:23;13.63;;;2.55;;
44036;SDS011;62488;-37.670;-63.532;2023-02-27T09:18:50;17.08;;;2.28;;
44036;SDS011;62488;-37.670;-63.532;2023-02-27T09:21:17;23.17;;;2.80;;
44036;SDS011;62488;-37.670;-63.532;2023-02-27T09:23:45;13.38;;;3.60;;
44036;SDS011;62488;-37.670;-63.532;2023-02-27T09:26:12;11.15;;;1.95;;
44036;SDS011;62488;-37.670;-63.532;2023-02-27T09:28:39;16.83;;;1.90;;
44036;SDS011;62488;-37.670;-63.532;2023-02-27T09:31:06;14.07;;;1.92;;
44036;SDS011;62488;-37.670;-63.532;2023-02-27T09:33:34;11.70;;;1.98;;
44036;SDS011;62488;-37.670;-63.532;2023-02-27T09:36:03;18.58;;;2.40;;
44036;SDS011;62488;-37.670;-63.532;2023-02-27T09:38:32;15.07;;;2.85;;
44036;SDS011;62488;-37.670;-63.532;2023-02-27T09:41:00;17.67;;;1.85;;
44036;SDS011;62488;-37.670;-63.532;2023-02-27T09:45:55;12.02;;;1.77;;
44036;SDS011;62488;-37.670;-63.532;2023-02-27T09:51:21;12.73;;;2.08;;
44036;SDS011;62488;-37.670;-63.532;2023-02-27T09:53:50;12.95;;;2.33;;
44036;SDS011;62488;-37.670;-63.532;2023-02-27T09:59:01;22.33;;;2.97;;
44036;SDS011;62488;-37.670;-63.532;2023-02-27T10:07:18;26.52;;;2.63;;
44036;SDS011;62488;-37.670;-63.532;2023-02-27T10:10:30;13.60;;;2.50;;
44036;SDS011;62488;-37.670;-63.532;2023-02-27T10:15:56;10.60;;;1.80;;
44036;SDS011;62488;-37.670;-63.532;2023-02-27T10:19:01;22.88;;;3.03;;
44036;SDS011;62488;-37.670;-63.532;2023-02-27T10:21:38;12.07;;;2.42;;
44036;SDS011;62488;-37.670;-63.532;2023-02-27T10:27:13;12.70;;;2.33;;
44036;SDS011;62488;-37.670;-63.532;2023-02-27T10:29:44;15.73;;;2.08;;
44036;SDS011;62488;-37.670;-63.532;2023-02-27T10:32:20;15.57;;;2.35;;
44036;SDS011;62488;-37.670;-63.532;2023-02-27T10:34:53;15.83;;;2.07;;
44036;SDS011;62488;-37.670;-63.532;2023-02-27T10:37:45;13.73;;;2.20;;
44036;SDS011;62488;-37.670;-63.532;2023-02-27T10:40:15;21.73;;;2.97;;
44036;SDS011;62488;-37.670;-63.532;2023-02-27T10:42:45;18.80;;;2.97;;
44036;SDS011;62488;-37.670;-63.532;2023-02-27T10:45:12;19.95;;;2.55;;
44036;SDS011;62488;-37.670;-63.532;2023-02-27T10:47:41;39.83;;;4.20;;
44036;SDS011;62488;-37.670;-63.532;2023-02-27T10:50:28;15.85;;;2.63;;
44036;SDS011;62488;-37.670;-63.532;2023-02-27T10:52:58;9.55;;;2.78;;
44036;SDS011;62488;-37.670;-63.532;2023-02-27T10:55:27;11.47;;;2.73;;
44036;SDS011;62488;-37.670;-63.532;2023-02-27T10:58:05;8.73;;;2.53;;
44036;SDS011;62488;-37.670;-63.532;2023-02-27T11:03:20;13.25;;;3.45;;
44036;SDS011;62488;-37.670;-63.532;2023-02-27T11:05:57;12.18;;;2.97;;
44036;SDS011;62488;-37.670;-63.532;2023-02-27T11:08:30;26.98;;;2.95;;
44036;SDS011;62488;-37.670;-63.532;2023-02-27T11:11:05;14.90;;;3.20;;
44036;SDS011;62488;-37.670;-63.532;2023-02-27T11:13:38;13.77;;;2.03;;
44036;SDS011;62488;-37.670;-63.532;2023-02-27T11:16:14;13.27;;;2.38;;
44036;SDS011;62488;-37.670;-63.532;2023-02-27T11:18:49;18.92;;;3.40;;
44036;SDS011;62488;-37.670;-63.532;2023-02-27T11:21:25;23.67;;;3.08;;
44036;SDS011;62488;-37.670;-63.532;2023-02-27T11:26:38;15.60;;;3.10;;
44036;SDS011;62488;-37.670;-63.532;2023-02-27T11:29:18;29.05;;;5.10;;
44036;SDS011;62488;-37.670;-63.532;2023-02-27T11:31:49;16.95;;;2.83;;
44036;SDS011;62488;-37.670;-63.532;2023-02-27T11:34:19;18.98;;;2.58;;
44036;SDS011;62488;-37.670;-63.532;2023-02-27T11:36:53;28.70;;;4.47;;
44036;SDS011;62488;-37.670;-63.532;2023-02-27T11:41:56;16.27;;;3.10;;
44036;SDS011;62488;-37.670;-63.532;2023-02-27T11:44:30;18.73;;;2.70;;
44036;SDS011;62488;-37.670;-63.532;2023-02-27T11:47:08;23.25;;;3.63;;
44036;SDS011;62488;-37.670;-63.532;2023-02-27T11:49:51;26.52;;;3.35;;
44036;SDS011;62488;-37.670;-63.532;2023-02-27T11:52:44;17.23;;;3.08;;
44036;SDS011;62488;-37.670;-63.532;2023-02-27T11:55:16;15.98;;;2.53;;
44036;SDS011;62488;-37.670;-63.532;2023-02-27T11:57:51;13.18;;;2.92;;
44036;SDS011;62488;-37.670;-63.532;2023-02-27T12:00:26;11.00;;;2.10;;
44036;SDS011;62488;-37.670;-63.532;2023-02-27T12:05:43;15.27;;;3.33;;
44036;SDS011;62488;-37.670;-63.532;2023-02-27T12:08:29;17.40;;;3.97;;
44036;SDS011;62488;-37.670;-63.532;2023-02-27T12:11:02;14.77;;;3.08;;
44036;SDS011;62488;-37.670;-63.532;2023-02-27T12:14:00;17.70;;;2.88;;
44036;SDS011;62488;-37.670;-63.532;2023-02-27T12:22:21;13.20;;;3.38;;
44036;SDS011;62488;-37.670;-63.532;2023-02-27T12:25:11;11.70;;;2.38;;
44036;SDS011;62488;-37.670;-63.532;2023-02-27T12:27:48;14.23;;;3.15;;
44036;SDS011;62488;-37.670;-63.532;2023-02-27T12:30:21;18.75;;;2.75;;
44036;SDS011;62488;-37.670;-63.532;2023-02-27T12:35:38;26.50;;;4.07;;
44036;SDS011;62488;-37.670;-63.532;2023-02-27T12:38:08;9.27;;;3.20;;
44036;SDS011;62488;-37.670;-63.532;2023-02-27T12:40:45;13.32;;;3.13;;
44036;SDS011;62488;-37.670;-63.532;2023-02-27T12:49:47;13.73;;;2.35;;
44036;SDS011;62488;-37.670;-63.532;2023-02-27T13:07:08;29.70;;;4.68;;
44036;SDS011;62488;-37.670;-63.532;2023-02-27T13:09:53;15.57;;;3.40;;
44036;SDS011;62488;-37.670;-63.532;2023-02-27T13:25:27;14.05;;;2.30;;
44036;SDS011;62488;-37.670;-63.532;2023-02-27T13:27:57;15.15;;;2.58;;
44036;SDS011;62488;-37.670;-63.532;2023-02-27T13:30:35;13.57;;;3.13;;
44036;SDS011;62488;-37.670;-63.532;2023-02-27T13:33:24;13.60;;;3.17;;
44036;SDS011;62488;-37.670;-63.532;2023-02-27T13:38:46;15.65;;;3.45;;
44036;SDS011;62488;-37.670;-63.532;2023-02-27T13:43:58;12.45;;;2.45;;
44036;SDS011;62488;-37.670;-63.532;2023-02-27T13:46:45;25.40;;;3.15;;
44036;SDS011;62488;-37.670;-63.532;2023-02-27T13:51:51;14.70;;;3.33;;
44036;SDS011;62488;-37.670;-63.532;2023-02-27T13:54:24;18.65;;;3.72;;
44036;SDS011;62488;-37.670;-63.532;2023-02-27T13:59:27;22.35;;;3.83;;
44036;SDS011;62488;-37.670;-63.532;2023-02-27T14:07:23;30.00;;;4.70;;
44036;SDS011;62488;-37.670;-63.532;2023-02-27T14:10:39;35.38;;;5.00;;
44036;SDS011;62488;-37.670;-63.532;2023-02-27T14:12:48;29.92;;;3.58;;
44036;SDS011;62488;-37.670;-63.532;2023-02-27T14:17:50;23.75;;;4.22;;
44036;SDS011;62488;-37.670;-63.532;2023-02-27T14:30:59;11.63;;;3.00;;
44036;SDS011;62488;-37.670;-63.532;2023-02-27T14:33:42;10.93;;;2.95;;
44036;SDS011;62488;-37.670;-63.532;2023-02-27T14:36:16;20.20;;;2.53;;
44036;SDS011;62488;-37.670;-63.532;2023-02-27T14:38:44;13.65;;;3.45;;
44036;SDS011;62488;-37.670;-63.532;2023-02-27T14:43:41;12.98;;;2.10;;
44036;SDS011;62488;-37.670;-63.532;2023-02-27T14:46:11;6.32;;;2.20;;
44036;SDS011;62488;-37.670;-63.532;2023-02-27T14:48:53;9.52;;;2.33;;
44036;SDS011;62488;-37.670;-63.532;2023-02-27T14:51:32;14.45;;;3.17;;
44036;SDS011;62488;-37.670;-63.532;2023-02-27T14:56:39;11.93;;;4.07;;
44036;SDS011;62488;-37.670;-63.532;2023-02-27T14:59:23;7.00;;;2.15;;
44036;SDS011;62488;-37.670;-63.532;2023-02-27T15:02:01;6.90;;;2.10;;
44036;SDS011;62488;-37.670;-63.532;2023-02-27T15:04:35;11.45;;;2.65;;
44036;SDS011;62488;-37.670;-63.532;2023-02-27T15:07:02;8.13;;;2.20;;
44036;SDS011;62488;-37.670;-63.532;2023-02-27T15:12:08;13.48;;;2.40;;
44036;SDS011;62488;-37.670;-63.532;2023-02-27T15:14:41;16.25;;;2.88;;
44036;SDS011;62488;-37.670;-63.532;2023-02-27T15:22:55;8.55;;;2.05;;
44036;SDS011;62488;-37.670;-63.532;2023-02-27T15:25:30;17.23;;;2.20;;
44036;SDS011;62488;-37.670;-63.532;2023-02-27T15:28:00;4.90;;;1.50;;
44036;SDS011;62488;-37.670;-63.532;2023-02-27T15:30:32;7.07;;;1.40;;
44036;SDS011;62488;-37.670;-63.532;2023-02-27T15:32:59;8.35;;;1.70;;
44036;SDS011;62488;-37.670;-63.532;2023-02-27T15:35:29;3.60;;;1.48;;
44036;SDS011;62488;-37.670;-63.532;2023-02-27T15:38:01;6.38;;;1.65;;
44036;SDS011;62488;-37.670;-63.532;2023-02-27T15:40:29;6.25;;;1.77;;
44036;SDS011;62488;-37.670;-63.532;2023-02-27T15:42:57;5.82;;;1.42;;
44036;SDS011;62488;-37.670;-63.532;2023-02-27T15:45:43;3.33;;;1.40;;
44036;SDS011;62488;-37.670;-63.532;2023-02-27T15:48:11;10.77;;;2.47;;
44036;SDS011;62488;-37.670;-63.532;2023-02-27T15:50:41;4.10;;;1.20;;
44036;SDS011;62488;-37.670;-63.532;2023-02-27T15:53:20;6.15;;;1.77;;
44036;SDS011;62488;-37.670;-63.532;2023-02-27T15:55:56;3.77;;;1.70;;
44036;SDS011;62488;-37.670;-63.532;2023-02-27T15:58:25;4.70;;;1.25;;
44036;SDS011;62488;-37.670;-63.532;2023-02-27T16:01:08;8.52;;;1.20;;
44036;SDS011;62488;-37.670;-63.532;2023-02-27T16:03:48;5.60;;;1.65;;
44036;SDS011;62488;-37.670;-63.532;2023-02-27T16:06:22;8.00;;;1.45;;
44036;SDS011;62488;-37.670;-63.532;2023-02-27T16:08:55;5.47;;;1.45;;
44036;SDS011;62488;-37.670;-63.532;2023-02-27T16:11:27;4.75;;;1.00;;
44036;SDS011;62488;-37.670;-63.532;2023-02-27T16:13:59;8.15;;;2.63;;
44036;SDS011;62488;-37.670;-63.532;2023-02-27T16:19:00;3.50;;;1.52;;
44036;SDS011;62488;-37.670;-63.532;2023-02-27T16:22:05;6.22;;;1.88;;
44036;SDS011;62488;-37.670;-63.532;2023-02-27T16:24:40;7.10;;;1.05;;
44036;SDS011;62488;-37.670;-63.532;2023-02-27T16:27:18;2.65;;;1.40;;
44036;SDS011;62488;-37.670;-63.532;2023-02-27T16:29:51;5.22;;;0.93;;
44036;SDS011;62488;-37.670;-63.532;2023-02-27T16:38:03;6.55;;;1.17;;
44036;SDS011;62488;-37.670;-63.532;2023-02-27T16:40:30;8.77;;;1.58;;
44036;SDS011;62488;-37.670;-63.532;2023-02-27T16:42:58;5.90;;;1.60;;
44036;SDS011;62488;-37.670;-63.532;2023-02-27T16:45:26;7.38;;;1.05;;
44036;SDS011;62488;-37.670;-63.532;2023-02-27T16:47:55;5.30;;;1.20;;
44036;SDS011;62488;-37.670;-63.532;2023-02-27T16:52:56;10.77;;;2.25;;
44036;SDS011;62488;-37.670;-63.532;2023-02-27T16:55:23;3.38;;;1.30;;
44036;SDS011;62488;-37.670;-63.532;2023-02-27T16:57:51;6.88;;;1.45;;
44036;SDS011;62488;-37.670;-63.532;2023-02-27T17:00:19;4.78;;;1.58;;
44036;SDS011;62488;-37.670;-63.532;2023-02-27T17:02:47;2.40;;;0.98;;
44036;SDS011;62488;-37.670;-63.532;2023-02-27T17:05:14;2.92;;;1.20;;
44036;SDS011;62488;-37.670;-63.532;2023-02-27T17:07:41;4.65;;;1.27;;
44036;SDS011;62488;-37.670;-63.532;2023-02-27T17:10:15;3.35;;;1.25;;
44036;SDS011;62488;-37.670;-63.532;2023-02-27T17:12:44;7.93;;;1.58;;
44036;SDS011;62488;-37.670;-63.532;2023-02-27T17:15:12;7.28;;;1.70;;
44036;SDS011;62488;-37.670;-63.532;2023-02-27T17:17:40;6.88;;;2.13;;
44036;SDS011;62488;-37.670;-63.532;2023-02-27T17:20:07;3.00;;;1.50;;
44036;SDS011;62488;-37.670;-63.532;2023-02-27T17:22:38;7.15;;;1.48;;
44036;SDS011;62488;-37.670;-63.532;2023-02-27T17:25:08;8.15;;;1.85;;
44036;SDS011;62488;-37.670;-63.532;2023-02-27T17:27:35;6.68;;;1.77;;
44036;SDS011;62488;-37.670;-63.532;2023-02-27T17:30:03;5.25;;;1.48;;
44036;SDS011;62488;-37.670;-63.532;2023-02-27T17:32:31;4.77;;;1.57;;
44036;SDS011;62488;-37.670;-63.532;2023-02-27T17:34:59;2.53;;;0.95;;
44036;SDS011;62488;-37.670;-63.532;2023-02-27T17:37:26;5.25;;;1.20;;
44036;SDS011;62488;-37.670;-63.532;2023-02-27T17:39:53;3.15;;;1.02;;
44036;SDS011;62488;-37.670;-63.532;2023-02-27T17:42:20;6.25;;;1.27;;
44036;SDS011;62488;-37.670;-63.532;2023-02-27T17:44:50;12.88;;;1.73;;
44036;SDS011;62488;-37.670;-63.532;2023-02-27T17:47:17;6.43;;;1.42;;
44036;SDS011;62488;-37.670;-63.532;2023-02-27T17:49:44;6.10;;;1.58;;
44036;SDS011;62488;-37.670;-63.532;2023-02-27T17:52:11;14.70;;;2.42;;
44036;SDS011;62488;-37.670;-63.532;2023-02-27T17:54:38;12.82;;;2.50;;
44036;SDS011;62488;-37.670;-63.532;2023-02-27T17:57:05;8.70;;;1.48;;
44036;SDS011;62488;-37.670;-63.532;2023-02-27T17:59:34;4.55;;;1.27;;
44036;SDS011;62488;-37.670;-63.532;2023-02-27T18:02:01;4.72;;;1.08;;
44036;SDS011;62488;-37.670;-63.532;2023-02-27T18:04:31;5.10;;;1.58;;
44036;SDS011;62488;-37.670;-63.532;2023-02-27T18:06:59;5.13;;;1.10;;
44036;SDS011;62488;-37.670;-63.532;2023-02-27T18:09:26;4.55;;;1.30;;
44036;SDS011;62488;-37.670;-63.532;2023-02-27T18:11:53;5.88;;;1.40;;